Data for 01/30/2006

Time Sea-Level Adjusted Pressure Absolute Pressure Temperature Relative Humidity Dew Point   
(mb) (inHg) (mb) (inHg) (C) (F) (%) (C) (F)
00:05 1013 29.91 843 24.89 -2.5 27.5 48 -12 10.4
00:10 1013 29.91 843 24.89 -2.6 27.3 49 -11.9 10.6
00:15 1013 29.91 842 24.86 -2.6 27.4 51 -11.5 11.3
00:20 1013 29.91 842 24.86 -2.9 26.9 53 -11.3 11.7
00:25 1013 29.91 842 24.86 -2.6 27.3 53 -11 12.2
00:30 1013 29.91 842 24.86 -2.6 27.3 54 -10.7 12.7
00:35 1013 29.91 842 24.86 -2.5 27.5 54 -10.7 12.8
00:40 1013 29.91 842 24.86 -2.5 27.5 54 -10.6 12.8
00:45 1013 29.91 842 24.86 -2.4 27.6 54 -10.4 13.2
00:50 1013 29.91 843 24.89 -2.3 27.8 54 -10.5 13.1
00:55 1013 29.91 843 24.89 -2.3 27.9 54 -10.5 13.1
01:00 1013 29.91 843 24.89 -2.2 28 54 -10.4 13.2
01:05 1013 29.91 843 24.89 -2.2 28.1 53 -10.4 13.2
01:10 1013 29.91 842 24.86 -2.2 28 54 -10.4 13.3
01:15 1013 29.91 843 24.89 -2.2 28.1 54 -10.2 13.7
01:20 1013 29.91 843 24.89 -2.2 28 55 -10.1 13.8
01:25 1013 29.91 842 24.86 -2.2 28 54 -10.3 13.5
01:30 1013 29.91 842 24.86 -2.2 28 55 -10 13.9
01:35 1013 29.91 842 24.86 -2.2 28 55 -10.1 13.8
01:40 1013 29.91 842 24.86 -2.2 28 56 -9.8 14.3
01:45 1013 29.91 842 24.86 -2.3 27.9 57 -9.8 14.4
01:50 1013 29.91 842 24.86 -2.2 28 57 -9.6 14.7
01:55 1013 29.91 842 24.86 -2.1 28.2 55 -10.1 13.9
02:00 1013 29.91 842 24.86 -1.9 28.6 54 -9.9 14.1
02:05 1013 29.91 842 24.86 -1.8 28.8 54 -9.9 14.3
02:10 1013 29.91 842 24.86 -1.8 28.8 55 -9.7 14.5
02:15 1013 29.91 842 24.86 -1.8 28.7 56 -9.5 14.9
02:20 1013 29.91 842 24.86 -1.9 28.6 56 -9.5 15
02:25 1013 29.91 842 24.86 -1.9 28.6 56 -9.4 15
02:30 1013 29.91 842 24.86 -1.8 28.8 56 -9.5 15
02:35 1013 29.91 842 24.86 -1.8 28.8 57 -9.3 15.3
02:40 1013 29.91 842 24.86 -1.6 29.1 58 -8.8 16.2
02:45 1013 29.91 842 24.86 -1.5 29.2 59 -8.5 16.8
02:50 1013 29.91 842 24.86 -1.6 29.1 61 -8.3 17.1
02:55 1013 29.91 842 24.86 -1.8 28.8 61 -8.3 17
03:00 1013 29.91 842 24.86 -1.9 28.7 61 -8.3 17
03:05 1013 29.91 842 24.86 -1.9 28.5 63 -8.1 17.3
03:10 1012 29.88 842 24.86 -1.9 28.6 63 -7.9 17.7
03:15 1012 29.88 841 24.83 -1.8 28.8 64 -7.6 18.2
03:20 1012 29.88 841 24.83 -1.8 28.8 67 -7.2 19.1
03:25 1012 29.88 841 24.83 -1.7 28.9 68 -6.9 19.5
03:30 1012 29.88 841 24.83 -1.6 29.1 68 -6.8 19.8
03:35 1012 29.88 841 24.83 -1.5 29.2 68 -6.7 19.9
03:40 1012 29.88 841 24.83 -1.5 29.3 69 -6.5 20.2
03:45 1012 29.88 841 24.83 -1.4 29.5 68 -6.5 20.3
03:50 1012 29.88 841 24.83 -1.3 29.7 68 -6.4 20.5
03:55 1012 29.88 841 24.83 -1.3 29.7 69 -6.3 20.6
04:00 1012 29.88 841 24.83 -1.3 29.6 68 -6.5 20.4
04:05 1012 29.88 841 24.83 -1.3 29.6 69 -6.3 20.6
04:10 1012 29.88 841 24.83 -1.4 29.5 69 -6.4 20.5
04:15 1012 29.88 841 24.83 -1.5 29.4 69 -6.4 20.5
04:20 1012 29.88 841 24.83 -1.5 29.3 69 -6.4 20.5
04:25 1011 29.85 841 24.83 -1.5 29.4 68 -6.5 20.2
04:30 1011 29.85 841 24.83 -1.4 29.5 68 -6.5 20.3
04:35 1011 29.85 841 24.83 -1.3 29.6 67 -6.6 20.1
04:40 1011 29.85 841 24.83 -1.2 29.8 68 -6.5 20.4
04:45 1011 29.85 840 24.81 -1.1 30 66 -6.6 20.1
04:50 1011 29.85 840 24.81 -0.9 30.3 65 -6.7 20
04:55 1011 29.85 840 24.81 -0.7 30.7 64 -6.7 19.9
05:00 1011 29.85 840 24.81 -0.9 30.5 65 -6.7 20
05:05 1011 29.85 840 24.81 -0.9 30.3 65 -6.7 19.9
05:10 1011 29.85 840 24.81 -1 30.2 66 -6.6 20.2
05:15 1011 29.85 840 24.81 -1.1 30 67 -6.5 20.4
05:20 1011 29.85 840 24.81 -1.1 30.1 65 -6.7 19.9
05:25 1011 29.85 840 24.81 -1.1 30.1 66 -6.5 20.2
05:30 1011 29.85 840 24.81 -1.3 29.6 68 -6.5 20.4
05:35 1011 29.85 840 24.81 -1.5 29.4 69 -6.5 20.3
05:40 1011 29.85 840 24.81 -1.6 29.2 68 -6.6 20.1
05:45 1011 29.85 840 24.81 -1.1 30.1 65 -6.8 19.8
05:50 1011 29.85 840 24.81 -0.9 30.4 66 -6.5 20.2
05:55 1011 29.85 840 24.81 -0.8 30.5 64 -6.7 19.9
06:00 1011 29.85 840 24.81 -0.6 31 63 -6.8 19.8
06:05 1011 29.85 840 24.81 -0.1 31.8 61 -6.8 19.8
06:10 1011 29.85 840 24.81 0.1 32.3 61 -6.6 20.1
06:15 1011 29.85 840 24.81 0.1 32.2 61 -6.6 20.1
06:20 1011 29.85 840 24.81 0.1 32.2 61 -6.6 20.1
06:25 1011 29.85 840 24.81 0 32.1 62 -6.4 20.5
06:30 1010 29.83 840 24.81 0.3 32.6 59 -6.7 19.9
06:35 1010 29.83 840 24.81 0.5 32.8 60 -6.5 20.4
06:40 1010 29.83 839 24.78 0.3 32.6 60 -6.6 20.1
06:45 1010 29.83 839 24.78 0.5 33 59 -6.6 20.1
06:50 1010 29.83 839 24.78 0.7 33.2 59 -6.5 20.2
06:55 1010 29.83 839 24.78 0.9 33.6 58 -6.6 20.1
07:00 1010 29.83 839 24.78 1.2 34.1 57 -6.5 20.3
07:05 1010 29.83 839 24.78 1.1 33.9 58 -6.2 20.8
07:10 1010 29.83 839 24.78 0.9 33.6 58 -6.4 20.4
07:15 1010 29.83 839 24.78 1.5 34.6 56 -6.5 20.4
07:20 1010 29.83 840 24.81 1.6 34.9 57 -6.1 21.1
07:25 1010 29.83 840 24.81 2.1 35.8 55 -6 21.1
07:30 1010 29.83 840 24.81 2.1 35.8 56 -5.9 21.4
07:35 1010 29.83 839 24.78 2.6 36.7 53 -6 21.2
07:40 1010 29.83 839 24.78 3.2 37.8 52 -5.6 21.9
07:45 1010 29.83 839 24.78 3.5 38.3 52 -5.5 22.1
07:50 1010 29.83 839 24.78 3.9 39 51 -5.4 22.3
07:55 1010 29.83 839 24.78 3.9 39.1 52 -5.1 22.8
08:00 1010 29.83 839 24.78 3.9 39 52 -5.1 22.7
08:05 1010 29.83 839 24.78 4.1 39.3 51 -5.1 22.9
08:10 1010 29.83 839 24.78 4.5 40.1 51 -4.9 23.2
08:15 1010 29.83 839 24.78 4.7 40.4 50 -4.9 23.2
08:20 1010 29.83 839 24.78 4.4 40 51 -4.9 23.2
08:25 1010 29.83 839 24.78 4.7 40.4 50 -4.8 23.4
08:30 1010 29.83 839 24.78 4.8 40.6 50 -4.7 23.5
08:35 1010 29.83 840 24.81 4.9 40.8 50 -4.7 23.5
08:40 1010 29.83 839 24.78 5.1 41.1 49 -4.7 23.5
08:45 1010 29.83 839 24.78 5.1 41.3 49 -4.6 23.7
08:50 1010 29.83 839 24.78 5.3 41.5 49 -4.7 23.6
08:55 1010 29.83 839 24.78 5.6 42.1 47 -4.9 23.2
09:00 1010 29.83 839 24.78 5.7 42.2 47 -4.8 23.4
09:05 1010 29.83 839 24.78 5.7 42.2 47 -4.6 23.6
09:10 1010 29.83 839 24.78 5.8 42.5 47 -4.6 23.7
09:15 1010 29.83 839 24.78 6.1 43 47 -4.5 23.9
09:20 1010 29.83 839 24.78 6.4 43.6 46 -4.4 24
09:25 1010 29.83 839 24.78 6.8 44.3 45 -4.3 24.2
09:30 1010 29.83 839 24.78 6.8 44.3 45 -4.3 24.3
09:35 1010 29.83 839 24.78 7 44.7 44 -4.3 24.2
09:40 1010 29.83 839 24.78 7.4 45.3 42 -4.5 23.9
09:45 1010 29.83 839 24.78 7.5 45.5 42 -4.6 23.8
09:50 1010 29.83 839 24.78 7.6 45.6 42 -4.6 23.7
09:55 1010 29.83 839 24.78 7.7 45.9 41 -4.7 23.5
10:00 1010 29.83 839 24.78 7.8 46 41 -4.8 23.4
10:05 1010 29.83 839 24.78 7.9 46.2 40 -4.9 23.3
10:10 1010 29.83 839 24.78 7.9 46.2 41 -4.7 23.6
10:15 1010 29.83 839 24.78 7.8 46 40 -4.9 23.2
10:20 1010 29.83 839 24.78 7.8 46.1 40 -5 23
10:25 1010 29.83 839 24.78 8 46.3 40 -4.9 23.2
10:30 1010 29.83 839 24.78 8.2 46.7 39 -4.9 23.1
10:35 1010 29.83 839 24.78 8.2 46.8 39 -4.9 23.2
10:40 1010 29.83 839 24.78 8 46.3 40 -4.8 23.4
10:45 1010 29.83 839 24.78 7.9 46.2 41 -4.6 23.8
10:50 1010 29.83 839 24.78 7.9 46.3 42 -4.3 24.2
10:55 1010 29.83 839 24.78 7.9 46.3 42 -4.3 24.2
11:00 1010 29.83 839 24.78 7.8 46.1 43 -4 24.8
11:05 1010 29.83 839 24.78 7.8 46 44 -3.8 25.2
11:10 1010 29.83 839 24.78 7.7 45.8 45 -3.6 25.5
11:15 1010 29.83 839 24.78 7.7 45.8 44 -3.8 25.2
11:20 1010 29.83 839 24.78 7.6 45.7 45 -3.5 25.7
11:25 1010 29.83 839 24.78 7.5 45.5 46 -3.3 26
11:30 1010 29.83 839 24.78 7.3 45.2 46 -3.6 25.5
11:35 1010 29.83 839 24.78 7.6 45.6 45 -3.5 25.7
11:40 1010 29.83 839 24.78 7.5 45.5 47 -3 26.7
11:45 1009 29.8 839 24.78 6.7 44.1 52 -2.5 27.4
11:50 1009 29.8 839 24.78 6.3 43.4 52 -2.9 26.8
11:55 1009 29.8 839 24.78 6.5 43.7 51 -3 26.7
12:00 1009 29.8 839 24.78 6.6 43.9 49 -3.4 25.9
12:05 1009 29.8 838 24.75 6.9 44.4 48 -3.3 26.1
12:10 1009 29.8 838 24.75 7.1 44.8 47 -3.4 25.9
12:15 1009 29.8 838 24.75 7.1 44.8 47 -3.3 26.1
12:20 1009 29.8 838 24.75 7.1 44.7 49 -3 26.7
12:25 1009 29.8 838 24.75 7 44.6 49 -3 26.6
12:30 1009 29.8 838 24.75 6.9 44.4 50 -2.9 26.8
12:35 1009 29.8 838 24.75 6.8 44.2 51 -2.7 27.1
12:40 1009 29.8 838 24.75 6.8 44.3 50 -2.9 26.8
12:45 1009 29.8 838 24.75 6.9 44.4 50 -2.7 27.1
12:50 1009 29.8 838 24.75 6.8 44.2 52 -2.4 27.7
12:55 1009 29.8 838 24.75 6.6 43.9 52 -2.6 27.3
13:00 1009 29.8 838 24.75 6.7 44.1 51 -2.7 27.1
13:05 1009 29.8 838 24.75 6.9 44.4 50 -2.8 27
13:10 1009 29.8 838 24.75 6.9 44.4 52 -2.4 27.7
13:15 1009 29.8 838 24.75 6.9 44.4 52 -2.3 27.9
13:20 1009 29.8 838 24.75 6.7 44.1 52 -2.5 27.6
13:25 1008 29.77 838 24.75 6.7 44 51 -2.8 27
13:30 1009 29.8 838 24.75 6.8 44.2 51 -2.7 27.1
13:35 1008 29.77 838 24.75 6.8 44.2 51 -2.6 27.3
13:40 1008 29.77 838 24.75 6.8 44.3 51 -2.6 27.3
13:45 1008 29.77 837 24.72 6.7 44 53 -2.3 27.8
13:50 1008 29.77 837 24.72 6.6 43.9 52 -2.5 27.5
13:55 1008 29.77 837 24.72 6.6 43.9 51 -2.7 27.2
14:00 1008 29.77 837 24.72 7 44.5 50 -2.7 27.1
14:05 1008 29.77 837 24.72 7.3 45.1 49 -2.6 27.3
14:10 1008 29.77 837 24.72 7.5 45.4 49 -2.4 27.6
14:15 1008 29.77 837 24.72 7.2 45 50 -2.5 27.5
14:20 1008 29.77 837 24.72 7.2 45 50 -2.6 27.4
14:25 1008 29.77 837 24.72 7.3 45.2 50 -2.4 27.6
14:30 1008 29.77 837 24.72 7.4 45.3 50 -2.4 27.7
14:35 1008 29.77 837 24.72 7.4 45.3 50 -2.4 27.6
14:40 1008 29.77 837 24.72 7.4 45.3 50 -2.3 27.9
14:45 1008 29.77 837 24.72 7.3 45.1 51 -2.1 28.1
14:50 1008 29.77 837 24.72 7.2 44.9 51 -2.3 27.8
14:55 1008 29.77 837 24.72 7 44.6 51 -2.3 27.8
15:00 1007 29.74 837 24.72 7 44.6 51 -2.5 27.5
15:05 1007 29.74 837 24.72 7.1 44.8 51 -2.4 27.8
15:10 1007 29.74 837 24.72 7.1 44.8 51 -2.5 27.6
15:15 1007 29.74 837 24.72 7 44.6 51 -2.3 27.8
15:20 1007 29.74 837 24.72 6.7 44.1 52 -2.3 27.8
15:25 1008 29.77 837 24.72 6.7 44 53 -2.2 28.1
15:30 1007 29.74 837 24.72 6.6 44 53 -2.3 27.8
15:35 1007 29.74 837 24.72 6.6 43.9 53 -2.3 27.9
15:40 1007 29.74 837 24.72 6.5 43.7 53 -2.3 27.9
15:45 1007 29.74 836 24.69 6.3 43.3 53 -2.6 27.4
15:50 1007 29.74 836 24.69 6.2 43.1 54 -2.5 27.5
15:55 1007 29.74 836 24.69 6.3 43.3 54 -2.2 28
16:00 1007 29.74 837 24.72 6.2 43.1 51 -3.3 26
16:05 1007 29.74 837 24.72 6.9 44.4 48 -3.4 25.8
16:10 1007 29.74 836 24.69 6.9 44.4 50 -2.7 27.1
16:15 1007 29.74 836 24.69 6.7 44.1 50 -3.1 26.5
16:20 1007 29.74 836 24.69 6.8 44.2 50 -2.9 26.7
16:25 1007 29.74 836 24.69 6.8 44.3 49 -3.1 26.4
16:30 1007 29.74 836 24.69 6.7 44 52 -2.6 27.3
16:35 1007 29.74 836 24.69 6.5 43.6 52 -2.6 27.4
16:40 1007 29.74 836 24.69 6.2 43.2 53 -2.6 27.4
16:45 1007 29.74 836 24.69 6.1 43 53 -2.8 27
16:50 1007 29.74 836 24.69 6.4 43.5 52 -2.8 26.9
16:55 1007 29.74 836 24.69 6.4 43.6 52 -2.8 27
17:00 1007 29.74 836 24.69 6.4 43.6 52 -2.6 27.3
17:05 1007 29.74 836 24.69 6.4 43.4 54 -2.2 28.1
17:10 1007 29.74 836 24.69 6 42.8 55 -2.3 27.8
17:15 1007 29.74 836 24.69 5.7 42.3 55 -2.5 27.4
17:20 1007 29.74 836 24.69 5.7 42.2 56 -2.5 27.5
17:25 1007 29.74 836 24.69 5.6 42.1 56 -2.5 27.5
17:30 1007 29.74 836 24.69 5.7 42.2 56 -2.4 27.6
17:35 1007 29.74 836 24.69 5.8 42.4 55 -2.5 27.5
17:40 1007 29.74 836 24.69 5.8 42.5 56 -2.3 27.9
17:45 1007 29.74 836 24.69 5.4 41.7 59 -2 28.4
17:50 1007 29.74 836 24.69 4.8 40.7 59 -2.4 27.6
17:55 1007 29.74 836 24.69 4.8 40.6 61 -2.1 28.2
18:00 1007 29.74 836 24.69 4.6 40.3 60 -2.4 27.6
18:05 1007 29.74 836 24.69 4.7 40.5 60 -2.5 27.5
18:10 1007 29.74 836 24.69 4.9 40.8 60 -2.3 27.8
18:15 1006 29.71 836 24.69 4.8 40.6 60 -2.3 27.9
18:20 1007 29.74 836 24.69 4.7 40.5 61 -2.1 28.1
18:25 1007 29.74 836 24.69 4.6 40.3 61 -2.2 28.1
18:30 1007 29.74 836 24.69 4.5 40.1 62 -2.1 28.2
18:35 1007 29.74 836 24.69 4.4 39.9 62 -2.2 28
18:40 1007 29.74 836 24.69 4.4 39.9 62 -2.2 28
18:45 1007 29.74 836 24.69 4.4 40 61 -2.4 27.8
18:50 1007 29.74 836 24.69 4.5 40.1 60 -2.5 27.5
18:55 1007 29.74 836 24.69 4.6 40.3 61 -2.4 27.8
19:00 1006 29.71 836 24.69 4.5 40.1 62 -2.2 28
19:05 1006 29.71 835 24.66 4.4 39.9 61 -2.4 27.8
19:10 1006 29.71 835 24.66 4.4 39.9 61 -2.4 27.7
19:15 1006 29.71 835 24.66 4.3 39.8 62 -2.3 27.8
19:20 1006 29.71 835 24.66 4.3 39.7 61 -2.5 27.5
19:25 1006 29.71 835 24.66 4.3 39.7 63 -2.2 28
19:30 1006 29.71 835 24.66 4 39.3 63 -2.3 27.9
19:35 1006 29.71 835 24.66 4 39.3 63 -2.3 27.8
19:40 1006 29.71 835 24.66 4 39.1 64 -2.3 27.9
19:45 1006 29.71 835 24.66 3.9 39.1 64 -2.3 27.8
19:50 1006 29.71 835 24.66 4.1 39.3 63 -2.4 27.6
19:55 1006 29.71 835 24.66 4.2 39.5 62 -2.5 27.5
20:00 1006 29.71 835 24.66 4.4 39.9 61 -2.4 27.6
20:05 1006 29.71 835 24.66 4.5 40 61 -2.4 27.7
20:10 1006 29.71 835 24.66 4.4 39.9 62 -2.3 27.9
20:15 1006 29.71 835 24.66 4.2 39.5 62 -2.5 27.5
20:20 1006 29.71 835 24.66 4.2 39.5 61 -2.6 27.3
20:25 1006 29.71 835 24.66 4.2 39.5 62 -2.4 27.7
20:30 1006 29.71 835 24.66 4 39.2 63 -2.4 27.7
20:35 1006 29.71 835 24.66 4 39.1 64 -2.2 28
20:40 1006 29.71 835 24.66 4 39.2 64 -2.2 28.1
20:45 1006 29.71 835 24.66 3.8 38.8 66 -2 28.4
20:50 1006 29.71 835 24.66 3.7 38.7 66 -2 28.4
20:55 1006 29.71 835 24.66 3.8 38.8 65 -2.2 28
21:00 1006 29.71 836 24.69 3.9 39 66 -2 28.4
21:05 1007 29.74 836 24.69 4.1 39.4 66 -1.8 28.8
21:10 1007 29.74 836 24.69 3.9 38.9 70 -1.1 29.9
21:15 1007 29.74 837 24.72 3.3 37.9 76 -0.5 31.1
21:20 1008 29.77 837 24.72 2.6 36.7 81 -0.3 31.4
21:25 1008 29.77 837 24.72 2.1 35.8 84 -0.3 31.4
21:30 1008 29.77 837 24.72 1.9 35.4 86 -0.2 31.7
21:35 1008 29.77 837 24.72 1.7 35 89 -0 32
21:40 1008 29.77 837 24.72 1.5 34.6 91 0.1 32.2
21:45 1008 29.77 837 24.72 1.2 34.2 92 0.1 32.2
21:50 1008 29.77 837 24.72 1.1 34 93 0.1 32.3
21:55 1008 29.77 837 24.72 1.1 34 94 0.2 32.4
22:00 1008 29.77 837 24.72 1.1 34 93 0.1 32.3
22:05 1008 29.77 837 24.72 1.1 34 94 0.2 32.3
22:10 1008 29.77 838 24.75 1 33.8 94 0.2 32.3
22:15 1008 29.77 838 24.75 0.8 33.5 95 0.1 32.2
22:20 1008 29.77 838 24.75 0.7 33.2 96 0.1 32.2
22:25 1008 29.77 838 24.75 0.6 33 96 0.1 32.1
22:30 1008 29.77 838 24.75 0.5 32.9 97 0.1 32.2
22:35 1008 29.77 838 24.75 0.4 32.8 97 0.1 32.1
22:40 1008 29.77 838 24.75 0.3 32.5 98 0 32
22:45 1008 29.77 838 24.75 0.3 32.5 99 0.1 32.1
22:50 1009 29.8 838 24.75 0.4 32.7 99 0.2 32.3
22:55 1009 29.8 838 24.75 0.4 32.7 98 0.2 32.3
23:00 1009 29.8 838 24.75 0.5 32.8 98 0.2 32.4
23:05 1009 29.8 838 24.75 0.6 33 98 0.3 32.5
23:10 1009 29.8 838 24.75 0.6 33.2 97 0.3 32.5
23:15 1009 29.8 838 24.75 0.6 33 97 0.2 32.3
23:20 1009 29.8 838 24.75 0.5 33 97 0.1 32.3
23:25 1009 29.8 838 24.75 0.5 32.9 98 0.2 32.3
23:30 1009 29.8 838 24.75 0.5 32.8 98 0.2 32.3
23:35 1009 29.8 838 24.75 0.5 33 97 0.1 32.3
23:40 1009 29.8 838 24.75 0.8 33.4 93 -0.2 31.7
23:45 1009 29.8 838 24.75 1.4 34.4 86 -0.8 30.5
23:50 1009 29.8 838 24.75 1.8 35.3 81 -1.1 30.1
23:55 1009 29.8 838 24.75 1.7 35.1 89 0.2 32.3
24:00 1009 29.8 838 24.75 1.2 34.1 91 -0.2 31.7